createdAt,value
2022-11-17T04:16:10.100Z,89.42
2022-11-17T04:41:56.629Z,89.44
2022-11-17T05:31:54.687Z,90.97
2022-11-17T05:39:20.340Z,90.89
2022-11-17T06:03:30.524Z,90.51
2022-11-17T06:10:40.382Z,90.59
2022-11-17T06:58:41.587Z,90.21
2022-11-17T07:30:44.634Z,88.28
2022-11-17T07:33:55.809Z,88.94
2022-11-17T07:36:59.127Z,87.12
2022-11-17T07:39:43.593Z,86.42
2022-11-17T07:42:49.469Z,86.07
2022-11-17T07:45:31.906Z,86.06
2022-11-17T07:48:25.374Z,85.88
2022-11-17T07:54:54.650Z,85.08
2022-11-17T07:57:39.418Z,85.49
2022-11-17T08:00:37.803Z,85.09
2022-11-17T08:03:49.318Z,85.29
2022-11-17T08:09:28.247Z,84.24
2022-11-17T08:12:16.017Z,84.70
2022-11-17T08:14:53.998Z,84.52
2022-11-17T08:17:37.286Z,83.68
2022-11-17T08:20:23.210Z,84.09
2022-11-17T08:23:02.664Z,83.41
2022-11-17T08:25:34.920Z,83.93
2022-11-17T08:28:15.165Z,83.88
2022-11-17T08:30:57.414Z,83.41
2022-11-17T08:33:29.467Z,83.62
2022-11-17T08:35:59.248Z,83.30
2022-11-17T08:38:31.925Z,83.08
2022-11-17T08:41:16.708Z,82.98
2022-11-17T08:43:50.908Z,82.44
2022-11-17T08:46:21.672Z,82.07
2022-11-17T08:48:53.870Z,82.40
2022-11-17T08:51:26.046Z,82.33
2022-11-17T08:53:58.550Z,82.47
2022-11-17T08:56:34.278Z,82.26
2022-11-17T08:59:10.357Z,81.96
2022-11-17T09:01:39.509Z,81.69
2022-11-17T09:04:11.020Z,82.37
2022-11-17T09:06:44.537Z,82.41
2022-11-17T09:09:16.037Z,81.13
2022-11-17T09:11:46.769Z,80.37
2022-11-17T09:14:19.131Z,81.23
2022-11-17T09:16:48.361Z,81.55
2022-11-17T09:19:17.871Z,82.15
2022-11-17T09:21:48.893Z,81.87
2022-11-17T09:24:24.071Z,82.68
2022-11-17T09:27:11.398Z,81.45
2022-11-17T09:29:40.694Z,82.00
2022-11-17T09:32:19.027Z,81.09
2022-11-17T09:34:50.209Z,81.45
2022-11-17T09:37:24.761Z,81.39
2022-11-17T09:39:55.988Z,80.92
2022-11-17T09:42:27.415Z,80.71
2022-11-17T09:45:06.346Z,80.88
2022-11-17T09:50:38.884Z,80.91
2022-11-17T09:54:14.746Z,80.71
2022-11-17T09:57:27.861Z,80.71
2022-11-17T10:00:36.109Z,79.89
2022-11-17T10:03:38.754Z,80.36
2022-11-17T10:06:44.103Z,80.50
2022-11-17T10:09:54.823Z,79.69
2022-11-17T10:13:00.155Z,78.89
2022-11-17T10:16:23.864Z,78.78
2022-11-17T10:19:29.434Z,78.89
2022-11-17T10:24:54.021Z,79.36
2022-11-17T10:27:39.219Z,78.65
2022-11-17T10:36:38.641Z,78.15
2022-11-17T10:43:54.383Z,78.14
2022-11-17T10:55:00.808Z,78.37
2022-11-17T10:59:25.859Z,78.72
